Time;durP1;ratioP1;P1;durP2;ratioP2;P2;SDS_P1;SDS_P2;PMS_P1;PMS_P2;Temp;Humidity;BMP_temperature;BMP_pressure;BME280_temperature;BME280_humidity;BME280_pressure;Samples;Min_cycle;Max_cycle;Signal;HPM_P1;HPM_P2
2021/03/16 00:01:05;;;;;;;19.93;11.33;;;103.30;2099.20;;;;;;5095054;28;20028;-68
2021/03/16 00:03:32;;;;;;;17.07;10.57;;;128.10;2099.20;;;;;;5094938;28;20103;-70
2021/03/16 00:05:59;;;;;;;14.43;9.80;;;128.10;2099.20;;;;;;5095220;28;20032;-70
2021/03/16 00:08:25;;;;;;;13.53;9.03;;;103.30;2099.20;;;;;;5094954;28;20099;-67
2021/03/16 00:10:51;;;;;;;16.33;9.97;;;103.20;2099.20;;;;;;5094908;28;20099;-70
2021/03/16 00:13:17;;;;;;;17.33;10.93;;;103.20;2099.20;;;;;;5095080;28;20100;-68
2021/03/16 00:15:43;;;;;;;20.00;11.40;;;103.20;2099.20;;;;;;5094799;28;20483;-68
2021/03/16 00:18:14;;;;;;;15.23;9.63;;;103.10;2099.20;;;;;;5094424;28;20063;-68
2021/03/16 00:20:43;;;;;;;15.57;10.03;;;103.10;2124.80;;;;;;5095003;28;20027;-69
2021/03/16 00:23:10;;;;;;;17.60;10.17;;;103.10;2099.20;;;;;;5094756;28;20078;-67
2021/03/16 00:25:36;;;;;;;17.00;9.83;;;103.10;2099.20;;;;;;5094599;28;20024;-68
2021/03/16 00:28:02;;;;;;;13.57;9.73;;;103.10;2073.60;;;;;;5094469;28;20059;-70
2021/03/16 00:30:28;;;;;;;16.07;9.60;;;103.00;2099.20;;;;;;5092831;28;20054;-68
2021/03/16 00:32:54;;;;;;;17.97;10.00;;;103.10;2124.80;;;;;;5094278;28;20024;-69
2021/03/16 00:35:20;;;;;;;14.87;10.20;;;103.00;2099.20;;;;;;5093798;28;20056;-68
2021/03/16 00:37:46;;;;;;;17.20;9.83;;;103.00;2073.60;;;;;;5084979;28;20031;-71
2021/03/16 00:40:12;;;;;;;17.67;9.83;;;102.90;2099.20;;;;;;5085774;28;20024;-68
2021/03/16 00:42:38;;;;;;;15.60;9.50;;;103.00;2099.20;;;;;;5074355;28;20354;-69
2021/03/16 00:45:06;;;;;;;12.77;9.37;;;103.00;2073.60;;;;;;5074069;28;20104;-70
2021/03/16 00:47:32;;;;;;;14.27;8.97;;;103.10;2073.60;;;;;;5073899;28;20427;-70
2021/03/16 00:49:57;;;;;;;13.87;9.80;;;103.30;2048.00;;;;;;5083159;28;20530;-68
2021/03/16 00:52:23;;;;;;;15.67;10.03;;;103.10;2048.00;;;;;;5082582;28;20012;-70
2021/03/16 00:54:49;;;;;;;15.87;8.90;;;103.10;2073.60;;;;;;5082597;28;20021;-68
2021/03/16 00:57:15;;;;;;;17.00;10.23;;;103.20;2048.00;;;;;;5080401;28;20028;-68
2021/03/16 00:59:41;;;;;;;13.30;9.40;;;103.20;2022.40;;;;;;5074841;28;20546;-70
2021/03/16 01:02:08;;;;;;;15.07;9.50;;;103.20;2048.00;;;;;;5083905;28;20016;-69
2021/03/16 01:04:33;;;;;;;15.83;9.77;;;103.20;2048.00;;;;;;5080947;28;20473;-69
2021/03/16 01:06:59;;;;;;;14.50;9.77;;;103.10;2048.00;;;;;;5082451;28;20046;-68
2021/03/16 01:09:25;;;;;;;13.10;9.20;;;103.10;2048.00;;;;;;5073624;28;20028;-68
2021/03/16 01:11:51;;;;;;;12.87;9.00;;;103.10;2048.00;;;;;;5074702;28;20115;-68
2021/03/16 01:14:17;;;;;;;14.73;9.47;;;103.00;2048.00;;;;;;5073561;28;20042;-70
2021/03/16 01:16:43;;;;;;;13.30;9.00;;;102.90;2073.60;;;;;;5073378;28;20489;-68
2021/03/16 01:19:09;;;;;;;13.20;9.40;;;102.90;2073.60;;;;;;5073636;28;20032;-69
2021/03/16 01:21:35;;;;;;;13.10;9.33;;;102.90;2073.60;;;;;;5073393;28;20111;-68
2021/03/16 01:24:01;;;;;;;17.40;9.90;;;103.00;2073.60;;;;;;5073429;28;20048;-70
2021/03/16 01:26:27;;;;;;;16.10;9.67;;;103.00;2048.00;;;;;;5073678;28;20077;-68
2021/03/16 01:28:53;;;;;;;13.90;9.57;;;103.10;2073.60;;;;;;5073686;28;20024;-68
2021/03/16 01:31:19;;;;;;;14.37;9.67;;;103.20;2022.40;;;;;;5073422;28;20070;-68
2021/03/16 01:33:44;;;;;;;14.67;10.03;;;103.20;2022.40;;;;;;5073432;28;20473;-68
2021/03/16 01:36:10;;;;;;;13.90;10.13;;;103.20;2022.40;;;;;;5073585;28;20063;-68
2021/03/16 01:38:36;;;;;;;12.97;9.53;;;103.30;2022.40;;;;;;5073222;28;20434;-68
2021/03/16 01:41:03;;;;;;;14.00;9.47;;;128.00;2022.40;;;;;;5073421;28;20028;-68
2021/03/16 01:43:31;;;;;;;13.33;9.60;;;103.20;1996.80;;;;;;5073460;28;20089;-68
2021/03/16 01:45:57;;;;;;;13.30;9.37;;;103.20;1996.80;;;;;;5073150;28;20024;-68
2021/03/16 01:48:31;;;;;;;16.67;9.00;;;103.10;2022.40;;;;;;5073165;28;20021;-68
2021/03/16 01:51:00;;;;;;;13.23;9.00;;;103.20;2022.40;;;;;;5073358;28;20039;-68
2021/03/16 01:53:26;;;;;;;13.90;9.60;;;128.00;2022.40;;;;;;5073322;28;20158;-69
2021/03/16 01:55:54;;;;;;;13.57;8.57;;;128.00;2022.40;;;;;;5071753;28;20058;-68
2021/03/16 01:58:20;;;;;;;13.93;9.60;;;103.30;1996.80;;;;;;5073111;28;20021;-68
2021/03/16 02:00:46;;;;;;;14.67;9.17;;;103.30;1971.20;;;;;;5073206;28;20028;-68
2021/03/16 02:03:13;;;;;;;13.90;9.37;;;103.30;1996.80;;;;;;5073065;28;20427;-68
2021/03/16 02:05:40;;;;;;;13.80;9.13;;;103.30;1996.80;;;;;;5084054;28;20062;-68
2021/03/16 02:08:29;;;;;;;12.57;8.73;;;103.20;1996.80;;;;;;5073028;28;20542;-68
2021/03/16 02:11:13;;;;;;;13.07;9.40;;;103.10;2022.40;;;;;;5072987;28;20017;-70
2021/03/16 02:13:57;;;;;;;14.80;9.85;;;103.20;1996.80;;;;;;5076831;28;20032;-70
2021/03/16 02:16:29;;;;;;;15.20;9.97;;;103.10;1996.80;;;;;;5076763;28;20086;-69
2021/03/16 02:19:00;;;;;;;12.87;9.43;;;103.10;2022.40;;;;;;5077088;28;20114;-70
2021/03/16 02:21:32;;;;;;;12.50;8.73;;;103.10;2022.40;;;;;;5075549;28;20044;-70
2021/03/16 02:24:09;;;;;;;13.70;9.70;;;103.10;1996.80;;;;;;5076741;28;20048;-68
2021/03/16 02:26:53;;;;;;;13.73;9.50;;;103.10;2022.40;;;;;;5076721;28;20477;-68
2021/03/16 02:29:22;;;;;;;14.40;9.40;;;103.00;2022.40;;;;;;5076652;28;20102;-70
2021/03/16 02:31:56;;;;;;;13.83;10.10;;;103.00;2022.40;;;;;;5076540;28;20032;-71
2021/03/16 02:34:23;;;;;;;13.82;8.98;;;102.90;2022.40;;;;;;5076570;28;20094;-69
2021/03/16 02:36:50;;;;;;;14.53;8.97;;;102.90;2022.40;;;;;;5076602;28;20396;-70
2021/03/16 02:39:18;;;;;;;14.03;8.80;;;102.80;2022.40;;;;;;5076358;28;20056;-70
2021/03/16 02:41:48;;;;;;;15.03;9.20;;;102.90;2022.40;;;;;;5076655;28;20036;-71
2021/03/16 02:44:15;;;;;;;13.17;9.17;;;102.80;2022.40;;;;;;5076294;28;20099;-69
2021/03/16 02:46:43;;;;;;;13.00;9.07;;;102.80;2048.00;;;;;;5076296;28;20111;-70
2021/03/16 02:49:11;;;;;;;13.13;8.83;;;102.90;2022.40;;;;;;5076251;28;20054;-68
2021/03/16 02:51:38;;;;;;;14.43;9.10;;;102.90;2022.40;;;;;;5076268;28;20031;-69
2021/03/16 02:54:05;;;;;;;14.73;8.80;;;102.80;2022.40;;;;;;5076319;28;20090;-70
2021/03/16 02:56:34;;;;;;;12.90;8.57;;;102.70;2048.00;;;;;;5076590;28;20090;-69
2021/03/16 02:59:02;;;;;;;13.50;9.13;;;102.70;2073.60;;;;;;5076341;28;20043;-70
2021/03/16 03:01:29;;;;;;;12.97;8.87;;;102.80;2048.00;;;;;;5075980;28;20024;-70
2021/03/16 03:03:59;;;;;;;12.67;9.17;;;102.80;2048.00;;;;;;5075941;28;20495;-70
2021/03/16 03:06:25;;;;;;;12.63;8.77;;;102.70;2048.00;;;;;;5075850;28;20544;-68
2021/03/16 03:08:52;;;;;;;16.60;8.63;;;102.80;2048.00;;;;;;5075838;28;20020;-68
2021/03/16 03:11:17;;;;;;;12.40;8.07;;;102.80;2048.00;;;;;;5075185;28;20029;-68
2021/03/16 03:13:43;;;;;;;13.47;9.23;;;102.70;2048.00;;;;;;5075205;28;20032;-68
2021/03/16 03:16:09;;;;;;;12.80;8.60;;;102.70;2048.00;;;;;;5075073;28;20079;-68
2021/03/16 03:18:35;;;;;;;17.47;8.60;;;102.60;2073.60;;;;;;5075155;28;20020;-68
2021/03/16 03:21:14;;;;;;;13.90;8.83;;;102.60;2073.60;;;;;;5074974;28;20024;-68
2021/03/16 03:23:59;;;;;;;13.23;8.73;;;102.50;2099.20;;;;;;5074513;28;20461;-68
2021/03/16 03:26:42;;;;;;;12.47;8.60;;;102.40;2099.20;;;;;;5075720;28;20021;-68
2021/03/16 03:29:10;;;;;;;10.70;7.53;;;102.40;2099.20;;;;;;5075737;28;20029;-68
2021/03/16 03:31:38;;;;;;;13.93;7.83;;;102.60;2099.20;;;;;;5075630;28;20393;-68
2021/03/16 03:34:05;;;;;;;13.00;8.97;;;102.60;2073.60;;;;;;5075333;28;20483;-68
2021/03/16 03:36:35;;;;;;;12.47;8.40;;;102.70;2099.20;;;;;;5075405;28;20101;-68
2021/03/16 03:39:03;;;;;;;9.93;7.50;;;102.80;2073.60;;;;;;5075506;28;20473;-70
2021/03/16 03:41:29;;;;;;;15.37;7.90;;;102.90;2099.20;;;;;;5075462;28;20029;-68
2021/03/16 03:43:56;;;;;;;12.23;8.00;;;102.90;2073.60;;;;;;5075425;28;20021;-67
2021/03/16 03:46:22;;;;;;;12.37;7.60;;;102.90;2073.60;;;;;;5075363;28;20032;-68
2021/03/16 03:48:49;;;;;;;14.40;7.67;;;103.10;2073.60;;;;;;5075296;28;20115;-68
2021/03/16 03:51:19;;;;;;;11.97;7.50;;;103.00;2073.60;;;;;;5074047;28;20028;-68
2021/03/16 03:53:46;;;;;;;13.17;7.70;;;103.00;2073.60;;;;;;5080458;28;20024;-69
2021/03/16 03:56:13;;;;;;;12.77;7.70;;;103.00;2099.20;;;;;;5093641;28;20440;-68
2021/03/16 03:58:39;;;;;;;13.43;6.83;;;103.00;2099.20;;;;;;5093590;28;20028;-68
2021/03/16 04:01:07;;;;;;;12.03;6.57;;;103.00;2099.20;;;;;;5093639;28;20036;-68
2021/03/16 04:03:35;;;;;;;11.30;7.17;;;103.00;2124.80;;;;;;5093181;28;20085;-68
2021/03/16 04:06:02;;;;;;;13.33;7.70;;;102.90;2124.80;;;;;;5093223;28;20043;-68
2021/03/16 04:08:29;;;;;;;8.27;6.50;;;103.00;2124.80;;;;;;5094256;28;20103;-68
2021/03/16 04:10:55;;;;;;;18.37;9.30;;;103.00;2124.80;;;;;;5095128;28;20032;-68
2021/03/16 04:13:22;;;;;;;12.87;8.20;;;102.90;2150.40;;;;;;5095104;28;20026;-68
2021/03/16 04:15:48;;;;;;;11.67;7.47;;;102.90;2150.40;;;;;;5093667;28;20506;-68
2021/03/16 04:18:15;;;;;;;11.50;7.90;;;103.00;2150.40;;;;;;5095016;28;20468;-68
2021/03/16 04:20:43;;;;;;;16.23;9.63;;;102.90;2150.40;;;;;;5095203;28;20035;-68
2021/03/16 04:23:10;;;;;;;13.03;8.80;;;103.10;2150.40;;;;;;5094865;28;20024;-68
2021/03/16 04:25:35;;;;;;;16.67;9.57;;;103.00;2150.40;;;;;;5094787;28;20036;-68
2021/03/16 04:28:02;;;;;;;11.23;7.63;;;103.00;2176.00;;;;;;5094713;28;20028;-68
2021/03/16 04:30:28;;;;;;;13.33;9.17;;;102.90;2201.60;;;;;;5094783;28;20476;-68
2021/03/16 04:32:54;;;;;;;14.07;7.97;;;103.00;2176.00;;;;;;5094937;28;20027;-68
2021/03/16 04:35:20;;;;;;;16.23;10.00;;;102.80;2201.60;;;;;;5093600;28;20048;-68
2021/03/16 04:37:46;;;;;;;10.93;7.97;;;102.90;2201.60;;;;;;5094824;28;20028;-68
2021/03/16 04:40:12;;;;;;;23.30;10.53;;;102.90;2227.20;;;;;;5094532;28;20507;-68
2021/03/16 04:42:38;;;;;;;16.70;10.80;;;102.90;2227.20;;;;;;5095093;28;20059;-68
2021/03/16 04:45:05;;;;;;;14.67;9.60;;;103.00;2201.60;;;;;;5094766;28;20059;-68
2021/03/16 04:47:31;;;;;;;14.40;9.30;;;103.00;2201.60;;;;;;5094666;28;20024;-68
2021/03/16 04:49:57;;;;;;;17.70;11.20;;;103.00;2201.60;;;;;;5094304;28;20092;-68
2021/03/16 04:52:22;;;;;;;15.17;10.07;;;103.00;2201.60;;;;;;5094588;28;20028;-68
2021/03/16 04:54:49;;;;;;;15.30;9.47;;;103.00;2201.60;;;;;;5094558;28;20409;-68
2021/03/16 04:57:15;;;;;;;17.10;11.07;;;103.00;2201.60;;;;;;5094312;28;20028;-68
2021/03/16 04:59:41;;;;;;;12.70;9.17;;;102.90;2227.20;;;;;;5094421;28;20050;-68
2021/03/16 05:02:07;;;;;;;19.93;11.30;;;102.90;2227.20;;;;;;5094401;28;20384;-67
2021/03/16 05:04:33;;;;;;;20.83;12.23;;;102.80;2227.20;;;;;;5094386;28;20024;-68
2021/03/16 05:06:59;;;;;;;19.20;10.97;;;102.60;2227.20;;;;;;5094211;28;20020;-68
2021/03/16 05:09:25;;;;;;;26.10;14.73;;;102.60;2227.20;;;;;;5094008;28;20097;-68
2021/03/16 05:11:51;;;;;;;42.83;19.83;;;102.60;2227.20;;;;;;5093998;28;20020;-68
2021/03/16 05:14:16;;;;;;;30.47;16.83;;;102.70;2227.20;;;;;;5093984;28;20425;-68
2021/03/16 05:16:43;;;;;;;14.03;9.67;;;102.60;2227.20;;;;;;5093881;28;20051;-67
2021/03/16 05:19:09;;;;;;;18.03;10.83;;;102.80;2227.20;;;;;;5094131;28;20388;-70
2021/03/16 05:21:34;;;;;;;15.43;9.93;;;102.90;2227.20;;;;;;5093949;28;20024;-68
2021/03/16 05:24:00;;;;;;;15.43;10.17;;;102.80;2227.20;;;;;;5093820;28;20081;-68
2021/03/16 05:26:26;;;;;;;15.60;10.33;;;102.90;2227.20;;;;;;5093847;28;20035;-68
2021/03/16 05:28:52;;;;;;;18.90;11.83;;;102.90;2227.20;;;;;;5094048;28;20032;-68
2021/03/16 05:31:18;;;;;;;15.20;9.97;;;102.90;2227.20;;;;;;5093994;28;20050;-68
2021/03/16 05:33:44;;;;;;;14.10;9.97;;;102.90;2227.20;;;;;;5093732;28;20024;-68
2021/03/16 05:36:10;;;;;;;16.57;10.27;;;103.00;2227.20;;;;;;5093614;28;20400;-68
2021/03/16 05:38:36;;;;;;;13.70;9.30;;;102.90;2227.20;;;;;;5093634;28;20023;-70
2021/03/16 05:41:02;;;;;;;15.70;9.83;;;102.90;2227.20;;;;;;5093922;28;20032;-70
2021/03/16 05:43:28;;;;;;;13.97;9.80;;;102.90;2227.20;;;;;;5093594;28;20081;-68
2021/03/16 05:45:57;;;;;;;16.10;9.83;;;102.90;2227.20;;;;;;5093796;28;20027;-68
2021/03/16 05:48:24;;;;;;;15.00;10.27;;;102.80;2227.20;;;;;;5094039;28;20036;-68
2021/03/16 05:50:54;;;;;;;18.87;12.60;;;102.80;2227.20;;;;;;5093440;28;20036;-68
2021/03/16 05:53:20;;;;;;;18.13;11.77;;;102.80;2227.20;;;;;;5093740;28;20024;-68
2021/03/16 05:55:47;;;;;;;23.80;13.00;;;102.90;2227.20;;;;;;5093417;28;20036;-68
2021/03/16 05:58:12;;;;;;;19.93;13.30;;;102.80;2227.20;;;;;;5093415;28;20035;-68
2021/03/16 06:00:38;;;;;;;19.87;13.27;;;102.80;2227.20;;;;;;5093445;28;20024;-68
2021/03/16 06:03:05;;;;;;;19.67;13.17;;;102.70;2227.20;;;;;;5093703;28;20021;-67
2021/03/16 06:05:31;;;;;;;24.73;14.67;;;102.60;2227.20;;;;;;5093354;28;20032;-67
2021/03/16 06:07:57;;;;;;;20.37;13.53;;;102.70;2227.20;;;;;;5093339;28;20020;-67
2021/03/16 06:10:24;;;;;;;22.03;12.27;;;102.90;2227.20;;;;;;5093639;28;20028;-67
2021/03/16 06:12:50;;;;;;;17.80;11.97;;;102.80;2227.20;;;;;;5093648;28;20024;-67
2021/03/16 06:15:18;;;;;;;19.97;12.93;;;103.00;2227.20;;;;;;5093612;28;20039;-67
2021/03/16 06:17:49;;;;;;;38.37;14.70;;;103.10;2227.20;;;;;;5093272;28;20032;-69
2021/03/16 06:20:38;;;;;;;26.53;15.87;;;103.00;2227.20;;;;;;5093546;28;20020;-68
2021/03/16 06:23:09;;;;;;;19.27;13.23;;;103.10;2227.20;;;;;;5085292;28;20032;-69
2021/03/16 06:25:40;;;;;;;24.93;14.53;;;103.10;2227.20;;;;;;5093301;28;20103;-67
2021/03/16 06:28:10;;;;;;;28.37;16.80;;;103.10;2227.20;;;;;;5093447;28;20051;-67
2021/03/16 06:30:37;;;;;;;18.60;13.10;;;103.20;2227.20;;;;;;5093590;28;20016;-67
2021/03/16 06:33:04;;;;;;;20.70;12.53;;;103.20;2227.20;;;;;;5093416;28;20051;-66
2021/03/16 06:35:31;;;;;;;21.43;12.10;;;103.30;2227.20;;;;;;5092859;28;20094;-68
2021/03/16 06:38:00;;;;;;;23.53;14.90;;;103.30;2227.20;;;;;;5093336;28;20024;-67
2021/03/16 06:40:30;;;;;;;24.60;15.80;;;103.30;2227.20;;;;;;5093075;28;20035;-68
2021/03/16 06:43:10;;;;;;;26.67;18.03;;;103.30;2227.20;;;;;;5092999;28;20024;-68
2021/03/16 06:45:39;;;;;;;24.50;15.80;;;103.20;2227.20;;;;;;5093074;28;20017;-67
2021/03/16 06:48:22;;;;;;;27.13;17.30;;;103.30;2227.20;;;;;;5093002;28;20032;-68
2021/03/16 06:50:49;;;;;;;27.80;14.68;;;128.00;2252.80;;;;;;5092974;28;20028;-69
2021/03/16 06:53:21;;;;;;;18.03;12.80;;;128.00;2252.80;;;;;;5092959;28;20051;-68
2021/03/16 06:55:54;;;;;;;18.07;12.87;;;128.20;2252.80;;;;;;5092818;28;20122;-67
2021/03/16 06:58:38;;;;;;;17.83;13.32;;;128.10;2252.80;;;;;;5093268;28;20483;-67
2021/03/16 07:01:08;;;;;;;16.10;11.53;;;128.10;2252.80;;;;;;5096742;28;20028;-67
2021/03/16 07:03:34;;;;;;;19.70;14.67;;;103.30;2227.20;;;;;;5096731;28;20032;-67
2021/03/16 07:06:10;;;;;;;18.40;11.50;;;128.10;2252.80;;;;;;5096381;28;20446;-67
2021/03/16 07:08:36;;;;;;;21.10;10.97;;;128.20;2252.80;;;;;;5096282;28;20101;-67
2021/03/16 07:11:04;;;;;;;17.00;11.87;;;128.40;2252.80;;;;;;5096581;28;20067;-67
2021/03/16 07:13:34;;;;;;;28.50;19.20;;;128.40;2252.80;;;;;;5096596;28;20020;-67
2021/03/16 07:16:04;;;;;;;20.97;14.57;;;128.50;2252.80;;;;;;5096066;28;20488;-67
2021/03/16 07:18:39;;;;;;;18.37;13.23;;;128.60;2252.80;;;;;;5096485;28;20107;-67
2021/03/16 07:21:11;;;;;;;18.43;12.93;;;128.60;2252.80;;;;;;5096087;28;20024;-67
2021/03/16 07:23:51;;;;;;;17.87;13.23;;;128.60;2252.80;;;;;;5096084;28;20020;-67
2021/03/16 07:26:17;;;;;;;21.23;14.77;;;128.50;2252.80;;;;;;5095983;28;20537;-67
2021/03/16 07:28:47;;;;;;;22.20;14.63;;;128.30;2252.80;;;;;;5095973;28;20507;-67
2021/03/16 07:31:14;;;;;;;22.23;14.60;;;128.50;2252.80;;;;;;5095973;28;20020;-68
2021/03/16 07:33:41;;;;;;;23.87;15.27;;;128.40;2252.80;;;;;;5095779;28;20477;-68
2021/03/16 07:36:08;;;;;;;30.75;17.77;;;128.40;2252.80;;;;;;5095761;28;20036;-68
2021/03/16 07:38:37;;;;;;;23.07;15.60;;;128.50;2252.80;;;;;;5094548;28;20101;-68
2021/03/16 07:41:04;;;;;;;25.10;15.27;;;128.50;2252.80;;;;;;5096018;28;20114;-67
2021/03/16 07:43:38;;;;;;;22.73;15.23;;;128.50;2252.80;;;;;;5096746;28;20020;-67
2021/03/16 07:46:17;;;;;;;18.37;12.20;;;128.60;2252.80;;;;;;5095947;28;20354;-67
2021/03/16 07:48:47;;;;;;;26.77;15.50;;;128.80;2252.80;;;;;;5095581;28;20035;-70
2021/03/16 07:51:15;;;;;;;24.37;16.13;;;128.90;2252.80;;;;;;5082396;28;20127;-70
2021/03/16 07:53:41;;;;;;;18.70;13.50;;;153.70;2252.80;;;;;;5085780;28;20027;-70
2021/03/16 07:56:15;;;;;;;16.85;12.23;;;153.80;2227.20;;;;;;5089917;28;20036;-69
2021/03/16 07:58:45;;;;;;;16.35;13.15;;;153.90;2201.60;;;;;;5088297;28;20017;-70
2021/03/16 08:01:12;;;;;;;19.38;15.82;;;154.00;2201.60;;;;;;5089861;28;20081;-70
2021/03/16 08:03:41;;;;;;;59.63;29.83;;;154.10;2201.60;;;;;;5088164;28;20024;-70
2021/03/16 08:06:07;;;;;;;40.05;25.13;;;154.20;2201.60;;;;;;5094541;28;20036;-69
2021/03/16 08:08:40;;;;;;;138.57;89.83;;;154.30;2176.00;;;;;;5094565;28;20024;-70
2021/03/16 08:11:12;;;;;;;35.42;28.98;;;154.20;2201.60;;;;;;5094466;28;20036;-70
2021/03/16 08:13:39;;;;;;;74.55;66.40;;;154.10;2201.60;;;;;;5090366;28;20532;-70
2021/03/16 08:16:16;;;;;;;99.75;88.93;;;154.20;2201.60;;;;;;5094223;28;20032;-70
2021/03/16 08:18:42;;;;;;;34.83;20.23;;;154.20;2176.00;;;;;;5094301;28;20042;-70
2021/03/16 08:21:14;;;;;;;120.85;95.35;;;154.10;2201.60;;;;;;5092547;28;20016;-70
2021/03/16 08:23:40;;;;;;;191.47;122.63;;;154.10;2176.00;;;;;;5092132;28;20027;-69
2021/03/16 08:26:08;;;;;;;220.35;155.00;;;154.10;2201.60;;;;;;5090849;28;20024;-69
2021/03/16 08:28:34;;;;;;;176.15;123.65;;;154.20;2201.60;;;;;;5081193;28;20024;-69
2021/03/16 08:31:01;;;;;;;54.97;43.22;;;154.10;2201.60;;;;;;5086237;28;20032;-69
2021/03/16 08:33:29;;;;;;;78.90;65.45;;;154.30;2227.20;;;;;;5088790;28;20380;-67
2021/03/16 08:35:56;;;;;;;85.63;74.47;;;154.40;2227.20;;;;;;5090385;28;20116;-69
2021/03/16 08:38:28;;;;;;;45.20;39.17;;;179.20;2176.00;;;;;;5093082;28;20024;-68
2021/03/16 08:41:13;;;;;;;38.22;33.75;;;179.20;2150.40;;;;;;5090473;28;20488;-70
2021/03/16 08:43:50;;;;;;;22.90;18.15;;;179.20;2150.40;;;;;;5089515;28;20427;-68
2021/03/16 08:46:31;;;;;;;32.65;29.17;;;179.30;2124.80;;;;;;5084228;28;20024;-71
2021/03/16 08:48:57;;;;;;;39.35;28.23;;;179.40;2124.80;;;;;;5087298;28;20031;-69
2021/03/16 08:51:25;;;;;;;50.22;30.38;;;179.70;2099.20;;;;;;5088135;28;20526;-68
2021/03/16 08:53:51;;;;;;;26.98;18.38;;;180.00;2124.80;;;;;;5089222;28;20049;-73
2021/03/16 08:56:24;;;;;;;32.40;19.02;;;180.10;2048.00;;;;;;5092904;28;20467;-67
2021/03/16 08:58:50;;;;;;;26.90;17.08;;;205.00;2073.60;;;;;;5088008;28;20027;-74
2021/03/16 09:01:27;;;;;;;15.60;11.77;;;205.10;2048.00;;;;;;5083104;28;20072;-70
2021/03/16 09:03:53;;;;;;;17.52;12.90;;;205.10;1945.60;;;;;;5077089;28;20032;-75
2021/03/16 09:06:21;;;;;;;18.38;12.07;;;205.20;1996.80;;;;;;5090004;28;20038;-71
2021/03/16 09:08:51;;;;;;;14.00;10.93;;;205.30;1971.20;;;;;;5093558;28;20024;-72
2021/03/16 09:11:34;;;;;;;18.75;13.13;;;205.40;1945.60;;;;;;5094225;28;20028;-67
2021/03/16 09:14:12;;;;;;;17.95;12.82;;;205.40;1971.20;;;;;;5093923;28;20457;-68
2021/03/16 09:16:58;;;;;;;22.02;14.32;;;205.60;1971.20;;;;;;5091786;28;20040;-68
2021/03/16 09:19:32;;;;;;;19.60;13.88;;;205.50;1868.80;;;;;;5094060;28;20067;-68
2021/03/16 09:22:02;;;;;;;18.08;13.40;;;205.50;1920.00;;;;;;5092861;28;20103;-68
2021/03/16 09:24:30;;;;;;;33.92;17.95;;;205.60;1945.60;;;;;;5093850;28;20119;-68
2021/03/16 09:27:05;;;;;;;20.27;13.95;;;205.70;1945.60;;;;;;5094082;28;20404;-68
2021/03/16 09:29:34;;;;;;;20.15;13.48;;;205.60;1894.40;;;;;;5093759;28;20036;-68
2021/03/16 09:32:02;;;;;;;19.90;13.27;;;205.60;1868.80;;;;;;5093747;28;20020;-68
2021/03/16 09:34:28;;;;;;;26.85;18.00;;;205.50;1843.20;;;;;;5069875;22;20049;-65
2021/03/16 09:37:09;;;;;;;22.45;13.18;;;205.50;1894.40;;;;;;5053390;28;20477;-65
2021/03/16 09:39:36;;;;;;;25.50;17.10;;;205.60;1894.40;;;;;;5053364;28;20040;-66
2021/03/16 09:42:05;;;;;;;20.88;12.48;;;205.60;1868.80;;;;;;5053402;28;20107;-65
2021/03/16 09:44:32;;;;;;;18.33;12.50;;;205.60;1817.60;;;;;;5053305;28;20037;-66
2021/03/16 09:46:58;;;;;;;17.63;12.43;;;205.60;1817.60;;;;;;5053407;28;20059;-65
2021/03/16 09:49:39;;;;;;;17.30;13.10;;;205.70;1817.60;;;;;;5053334;28;20477;-73
2021/03/16 09:52:10;;;;;;;19.17;13.00;;;230.40;1843.20;;;;;;5053450;28;20021;-65
2021/03/16 09:54:42;;;;;;;15.23;11.50;;;230.40;1817.60;;;;;;5053265;28;20021;-65
2021/03/16 09:57:13;;;;;;;14.45;11.85;;;230.40;1792.00;;;;;;5053481;28;20190;-71
2021/03/16 09:59:40;;;;;;;16.50;12.57;;;205.70;1792.00;;;;;;5053066;28;20389;-67
2021/03/16 10:02:07;;;;;;;21.35;15.50;;;230.40;1843.20;;;;;;5050434;28;20911;-73
2021/03/16 10:04:47;;;;;;;22.23;14.85;;;230.50;1920.00;;;;;;5051374;28;20025;-72
2021/03/16 10:07:27;;;;;;;16.30;13.82;;;230.70;1920.00;;;;;;5052384;28;20040;-66
2021/03/16 10:09:54;;;;;;;18.50;13.00;;;230.70;1868.80;;;;;;5052241;28;20465;-67
2021/03/16 10:12:22;;;;;;;16.67;12.93;;;230.70;1894.40;;;;;;5051373;28;20028;-66
2021/03/16 10:14:52;;;;;;;14.63;12.10;;;230.70;1843.20;;;;;;5051315;28;20021;-71
2021/03/16 10:17:31;;;;;;;18.15;14.82;;;230.50;1843.20;;;;;;5051050;28;20037;-65
2021/03/16 10:20:07;;;;;;;16.80;13.65;;;230.60;1843.20;;;;;;5051847;28;20384;-67
2021/03/16 10:22:35;;;;;;;17.52;13.73;;;230.60;1843.20;;;;;;5052678;28;20462;-65
2021/03/16 10:25:07;;;;;;;22.85;15.88;;;230.60;1868.80;;;;;;5052377;28;20032;-65
2021/03/16 10:27:34;;;;;;;16.13;14.27;;;230.70;1843.20;;;;;;5052995;28;20021;-72
2021/03/16 10:30:06;;;;;;;22.90;16.02;;;230.90;1843.20;;;;;;5053190;28;20025;-65
2021/03/16 10:32:32;;;;;;;22.48;14.13;;;231.00;1843.20;;;;;;5052339;28;20021;-69
2021/03/16 10:34:58;;;;;;;29.00;19.40;;;231.00;1792.00;;;;;;5055180;28;20371;-65
2021/03/16 10:37:25;;;;;;;26.45;17.25;;;231.00;1817.60;;;;;;5056641;28;20474;-65
2021/03/16 10:39:52;;;;;;;22.33;15.55;;;231.00;1817.60;;;;;;5055436;28;20029;-65
2021/03/16 10:42:18;;;;;;;17.70;14.35;;;231.10;1817.60;;;;;;5055604;28;20424;-65
2021/03/16 10:44:44;;;;;;;20.13;14.80;;;231.00;1817.60;;;;;;5055851;28;20030;-65
2021/03/16 10:47:11;;;;;;;14.68;11.98;;;231.10;1817.60;;;;;;5056191;28;20025;-65
2021/03/16 10:49:37;;;;;;;19.27;14.05;;;231.00;1740.80;;;;;;5056205;28;20048;-65
2021/03/16 10:52:04;;;;;;;17.83;14.65;;;231.00;1817.60;;;;;;5056082;28;20473;-65
2021/03/16 10:54:30;;;;;;;17.55;13.00;;;231.20;1792.00;;;;;;5056290;28;20052;-65
2021/03/16 10:56:57;;;;;;;14.25;12.45;;;231.30;1740.80;;;;;;5056314;28;20212;-65
2021/03/16 10:59:24;;;;;;;18.77;14.02;;;231.30;1740.80;;;;;;5056424;28;20029;-65
2021/03/16 11:01:51;;;;;;;19.40;14.80;;;231.30;1715.20;;;;;;5055018;28;20477;-65
2021/03/16 11:04:18;;;;;;;22.25;15.98;;;231.30;1792.00;;;;;;5056207;28;20025;-65
2021/03/16 11:06:45;;;;;;;15.52;12.20;;;256.00;1766.40;;;;;;5056111;28;20075;-65
2021/03/16 11:09:12;;;;;;;16.35;13.30;;;231.30;1664.00;;;;;;5056285;28;20029;-65
2021/03/16 11:11:38;;;;;;;17.77;13.93;;;231.20;1664.00;;;;;;5056060;28;20424;-68
2021/03/16 11:14:04;;;;;;;17.55;13.65;;;231.30;1715.20;;;;;;5055965;28;20032;-72
2021/03/16 11:16:31;;;;;;;15.05;12.02;;;256.00;1740.80;;;;;;5054612;28;20041;-65
2021/03/16 11:18:57;;;;;;;16.10;14.00;;;231.30;1715.20;;;;;;5056238;28;20017;-66
2021/03/16 11:21:22;;;;;;;25.50;16.65;;;231.30;1740.80;;;;;;5054226;28;20016;-70
2021/03/16 11:23:48;;;;;;;22.83;16.15;;;256.10;1766.40;;;;;;5054457;28;20079;-68
2021/03/16 11:26:14;;;;;;;75.25;43.80;;;256.30;1740.80;;;;;;5052681;28;20104;-67
2021/03/16 11:28:40;;;;;;;20.10;16.48;;;256.50;1689.60;;;;;;5055283;28;20022;-68
2021/03/16 11:31:06;;;;;;;19.52;15.35;;;256.40;1638.40;;;;;;5055762;28;20025;-68
2021/03/16 11:33:32;;;;;;;24.58;18.45;;;256.40;1664.00;;;;;;5055412;28;20041;-67
2021/03/16 11:35:57;;;;;;;60.72;42.03;;;256.30;1612.80;;;;;;5055452;28;20412;-68
2021/03/16 11:38:23;;;;;;;33.15;22.20;;;256.30;1638.40;;;;;;5054699;28;20029;-68
2021/03/16 11:40:49;;;;;;;21.10;15.65;;;256.50;1638.40;;;;;;5054973;28;20544;-67
2021/03/16 11:43:15;;;;;;;18.10;14.60;;;256.50;1612.80;;;;;;5055256;28;20037;-68
2021/03/16 11:45:42;;;;;;;17.38;14.23;;;256.50;1587.20;;;;;;5053001;28;20028;-72
2021/03/16 11:48:09;;;;;;;36.50;26.70;;;256.40;1587.20;;;;;;5052013;28;20493;-68
2021/03/16 11:50:35;;;;;;;30.85;21.40;;;256.60;1612.80;;;;;;5055395;28;20029;-72
2021/03/16 11:53:02;;;;;;;22.05;14.80;;;256.80;1612.80;;;;;;5055663;28;20112;-73
2021/03/16 11:55:29;;;;;;;23.92;18.27;;;281.60;1561.60;;;;;;5055172;28;20028;-66
2021/03/16 11:57:55;;;;;;;25.63;22.80;;;256.90;1561.60;;;;;;5055112;28;20041;-66
2021/03/16 12:00:21;;;;;;;17.10;12.68;;;281.60;1612.80;;;;;;5054739;28;20071;-66
2021/03/16 12:02:47;;;;;;;14.32;11.98;;;281.70;1612.80;;;;;;5054926;28;20366;-67
2021/03/16 12:05:13;;;;;;;19.15;14.25;;;281.60;1561.60;;;;;;5054756;28;20436;-67
2021/03/16 12:07:39;;;;;;;17.38;13.07;;;281.60;1587.20;;;;;;5054216;28;20040;-66
2021/03/16 12:10:07;;;;;;;19.40;13.13;;;281.70;1510.40;;;;;;5054849;28;20025;-66